createdAt,value
2023-03-03T00:05:50.676Z,2.4
2023-03-03T00:11:50.687Z,2.2
2023-03-03T00:17:50.712Z,2
2023-03-03T00:23:50.808Z,2
2023-03-03T00:29:50.708Z,2.1
2023-03-03T00:35:50.845Z,2.1
2023-03-03T00:41:50.684Z,2
2023-03-03T00:47:50.666Z,2
2023-03-03T00:53:50.726Z,2
2023-03-03T00:59:50.708Z,1.8
2023-03-03T01:05:50.706Z,1.7
2023-03-03T01:11:50.707Z,1.6
2023-03-03T01:17:50.711Z,1.6
2023-03-03T01:23:50.674Z,1.5
2023-03-03T01:29:50.679Z,1.4
2023-03-03T01:35:50.792Z,1
2023-03-03T01:41:50.661Z,1
2023-03-03T01:47:50.689Z,0.8
2023-03-03T01:53:50.665Z,0.7
2023-03-03T01:59:50.653Z,0.7
2023-03-03T02:05:50.688Z,0.6
2023-03-03T02:11:50.653Z,0.6
2023-03-03T02:17:50.647Z,0.6
2023-03-03T02:23:50.703Z,0.5
2023-03-03T02:29:50.659Z,0.3
2023-03-03T02:35:50.767Z,0.2
2023-03-03T02:41:50.752Z,0.1
2023-03-03T02:47:50.656Z,0
2023-03-03T02:53:50.656Z,0
2023-03-03T02:59:50.663Z,0
2023-03-03T03:05:50.653Z,-0.1
2023-03-03T03:11:50.648Z,-0.1
2023-03-03T03:17:50.674Z,-0.3
2023-03-03T03:23:50.638Z,-0.3
2023-03-03T03:29:50.639Z,-0.5
2023-03-03T03:35:50.729Z,-0.4
2023-03-03T03:41:50.688Z,-0.5
2023-03-03T03:47:50.680Z,-0.5
2023-03-03T03:53:50.647Z,-0.6
2023-03-03T03:59:50.657Z,-0.7
2023-03-03T04:05:50.651Z,-0.7
2023-03-03T04:11:50.665Z,-0.9
2023-03-03T04:17:50.667Z,-1
2023-03-03T04:23:50.647Z,-0.9
2023-03-03T04:29:50.691Z,-0.9
2023-03-03T04:35:50.644Z,-1
2023-03-03T04:42:09.196Z,-1.4
2023-03-03T04:47:50.657Z,-1.5
2023-03-03T04:53:50.952Z,-1.7
2023-03-03T04:59:50.639Z,-1.9
2023-03-03T05:05:50.668Z,-1.7
2023-03-03T05:11:50.640Z,-1.8
2023-03-03T05:17:50.652Z,-1.8
2023-03-03T05:23:50.650Z,-1.7
2023-03-03T05:29:50.648Z,-1.7
2023-03-03T05:35:50.626Z,-1.8
2023-03-03T05:41:50.669Z,-1.7
2023-03-03T05:47:50.623Z,-1.9
2023-03-03T05:53:50.634Z,-1.8
2023-03-03T05:59:50.662Z,-1.8
2023-03-03T06:05:50.644Z,-1.9
2023-03-03T06:11:50.624Z,-1.7
2023-03-03T06:17:50.643Z,-1.7
2023-03-03T06:23:50.613Z,-1.7
2023-03-03T06:29:50.620Z,-1.5
2023-03-03T06:35:50.666Z,-1.4
2023-03-03T06:41:50.666Z,-1.3
2023-03-03T06:47:50.617Z,-0.8
2023-03-03T06:53:50.672Z,-0.9
2023-03-03T06:59:50.596Z,-0.8
2023-03-03T07:05:50.620Z,-0.5
2023-03-03T07:11:50.647Z,-0.3
2023-03-03T07:17:51.300Z,-0.1
2023-03-03T07:23:50.640Z,-0.1
2023-03-03T07:29:50.634Z,-0.1
2023-03-03T07:35:50.706Z,0.1
2023-03-03T07:41:50.620Z,0.4
2023-03-03T07:47:50.656Z,0.5
2023-03-03T07:53:50.623Z,0.4
2023-03-03T07:59:50.605Z,0.7
2023-03-03T08:05:50.635Z,0.6
2023-03-03T08:11:50.610Z,0.9
2023-03-03T08:17:50.616Z,0.9
2023-03-03T08:23:50.624Z,0.9
2023-03-03T08:29:50.661Z,1.1
2023-03-03T08:35:50.667Z,0.4
2023-03-03T08:41:50.631Z,1.2
2023-03-03T08:47:50.608Z,2
2023-03-03T08:53:50.587Z,2.1
2023-03-03T08:59:50.623Z,1.6
2023-03-03T09:05:50.599Z,1.6
2023-03-03T09:11:50.588Z,1.2
2023-03-03T09:17:50.604Z,1.1
2023-03-03T09:23:50.608Z,1.2
2023-03-03T09:29:50.598Z,1.3
2023-03-03T09:35:50.688Z,1.2
2023-03-03T09:41:50.593Z,1
2023-03-03T09:47:50.572Z,1.2
2023-03-03T09:53:50.613Z,1.9
2023-03-03T09:59:50.602Z,1.8
2023-03-03T10:05:50.834Z,2.1
2023-03-03T10:11:50.635Z,2
2023-03-03T10:17:50.817Z,1.5
2023-03-03T10:23:50.604Z,2
2023-03-03T10:29:50.587Z,2.3
2023-03-03T10:36:04.843Z,2.2
2023-03-03T10:41:50.565Z,3.2
2023-03-03T10:47:50.599Z,3.4
2023-03-03T10:53:50.572Z,4
2023-03-03T10:59:50.585Z,3.8
2023-03-03T11:05:50.626Z,3.9
2023-03-03T11:11:50.564Z,3.8
2023-03-03T11:17:50.560Z,5.2
2023-03-03T11:23:50.604Z,4.4
2023-03-03T11:29:50.578Z,3.9
2023-03-03T11:35:50.636Z,4.8
2023-03-03T11:41:50.648Z,5.4
2023-03-03T11:47:50.595Z,5.7
2023-03-03T11:53:50.586Z,6.3
2023-03-03T11:59:50.606Z,5.9
2023-03-03T12:05:50.625Z,5.9
2023-03-03T12:11:52.721Z,6
2023-03-03T12:17:50.840Z,6.5
2023-03-03T12:23:50.593Z,6.5
2023-03-03T12:29:50.599Z,5.6
2023-03-03T12:35:50.919Z,6.2
2023-03-03T12:41:50.596Z,5.7
2023-03-03T12:47:50.608Z,6.2
2023-03-03T12:53:50.622Z,6.4
2023-03-03T12:59:50.592Z,6.4
2023-03-03T13:05:50.616Z,6.4
2023-03-03T13:11:52.400Z,6.4
2023-03-03T13:17:50.613Z,6.3
2023-03-03T13:23:50.593Z,6.1
2023-03-03T13:29:50.602Z,6.2
2023-03-03T13:35:50.739Z,6.3
2023-03-03T13:41:50.593Z,6.7
2023-03-03T13:47:50.598Z,6.7
2023-03-03T13:53:50.582Z,6.5
2023-03-03T13:59:50.602Z,6.5
2023-03-03T14:05:50.667Z,5.8
2023-03-03T14:11:50.595Z,6.7
2023-03-03T14:18:09.131Z,6.9
2023-03-03T14:23:50.605Z,6.8
2023-03-03T14:29:50.584Z,6.6
2023-03-03T14:35:50.644Z,6.6
2023-03-03T14:41:52.696Z,6.4
2023-03-03T14:47:50.606Z,6.4
2023-03-03T14:54:09.117Z,6.2
2023-03-03T14:59:50.646Z,6.1
2023-03-03T15:05:50.612Z,5.9
2023-03-03T15:11:50.588Z,5.7
2023-03-03T15:17:50.610Z,5.6
2023-03-03T15:23:50.593Z,5.6
2023-03-03T15:29:50.570Z,5.4
2023-03-03T15:35:50.656Z,5.1
2023-03-03T15:41:50.578Z,4.8
2023-03-03T15:47:50.566Z,4.8
2023-03-03T15:53:50.605Z,4.6
2023-03-03T15:59:50.557Z,4.5
2023-03-03T16:05:50.535Z,4.4
2023-03-03T16:11:50.573Z,4.2
2023-03-03T16:17:50.531Z,3.8
2023-03-03T16:23:50.539Z,3.9
2023-03-03T16:29:50.573Z,3.7
2023-03-03T16:35:50.665Z,3.6
2023-03-03T16:41:50.552Z,3.5
2023-03-03T16:48:09.097Z,3.2
2023-03-03T16:53:50.551Z,2.9
2023-03-03T16:59:50.600Z,2.8
2023-03-03T17:05:50.564Z,2.8
2023-03-03T17:11:50.544Z,2.5
2023-03-03T17:17:50.545Z,2.3
2023-03-03T17:23:50.546Z,2.3
2023-03-03T17:29:50.554Z,2.1
2023-03-03T17:35:50.555Z,2
2023-03-03T17:41:50.546Z,1.8
2023-03-03T17:47:50.528Z,1.8
2023-03-03T17:53:50.525Z,1.6
2023-03-03T17:59:50.559Z,1.4
2023-03-03T18:05:50.522Z,1.5
2023-03-03T18:11:50.546Z,1.6
2023-03-03T18:17:50.574Z,1.4
2023-03-03T18:23:50.537Z,1.3
2023-03-03T18:29:50.585Z,1.2
2023-03-03T18:35:50.607Z,1.1
2023-03-03T18:41:50.530Z,1
2023-03-03T18:47:50.519Z,1
2023-03-03T18:53:50.547Z,1
2023-03-03T18:59:50.511Z,0.9
2023-03-03T19:05:50.519Z,0.7
2023-03-03T19:11:50.555Z,0.7
2023-03-03T19:17:50.506Z,0.8
2023-03-03T19:23:50.520Z,0.7
2023-03-03T19:29:50.541Z,0.8
2023-03-03T19:35:50.600Z,0.7
2023-03-03T19:41:50.515Z,0.7
2023-03-03T19:47:50.536Z,0.6
2023-03-03T19:53:50.520Z,0.5
2023-03-03T19:59:50.504Z,0.4
2023-03-03T20:05:50.542Z,0.4
2023-03-03T20:11:50.503Z,0.4
2023-03-03T20:17:50.523Z,0.4
2023-03-03T20:23:50.536Z,0.3
2023-03-03T20:29:50.500Z,0.2
2023-03-03T20:35:50.567Z,0.2
2023-03-03T20:41:50.519Z,0.1
2023-03-03T20:47:50.500Z,0.1
2023-03-03T20:53:50.498Z,0
2023-03-03T20:59:50.516Z,0
2023-03-03T21:05:50.516Z,0
2023-03-03T21:11:50.503Z,0.1
2023-03-03T21:17:50.537Z,0.1
2023-03-03T21:23:50.499Z,0
2023-03-03T21:29:50.496Z,0.1
2023-03-03T21:35:50.561Z,0.2
2023-03-03T21:41:50.491Z,0.2
2023-03-03T21:47:50.470Z,0.2
2023-03-03T21:54:09.045Z,0.3
2023-03-03T21:59:50.492Z,0.4
2023-03-03T22:05:50.492Z,0.5
2023-03-03T22:11:50.504Z,0.5
2023-03-03T22:17:50.477Z,0.7
2023-03-03T22:23:50.501Z,0.8
2023-03-03T22:29:50.514Z,0.8
2023-03-03T22:35:50.515Z,0.8
2023-03-03T22:41:50.500Z,0.8
2023-03-03T22:47:50.537Z,0.6
2023-03-03T22:53:50.494Z,0.8
2023-03-03T22:59:50.494Z,0.9
2023-03-03T23:05:51.926Z,0.8
2023-03-03T23:11:50.477Z,0.9
2023-03-03T23:17:50.495Z,0.8
2023-03-03T23:23:50.516Z,1.2
2023-03-03T23:29:50.475Z,1.1
2023-03-03T23:35:50.523Z,1.2
2023-03-03T23:41:50.516Z,1.3
2023-03-03T23:47:50.480Z,1.2
2023-03-03T23:53:50.485Z,1.2
2023-03-03T23:59:50.511Z,1.2
